createdAt,value
2017-09-04T00:01:37.996Z,11.10
2017-09-04T00:04:04.301Z,11.00
2017-09-04T00:06:30.624Z,11.00
2017-09-04T00:08:56.959Z,11.00
2017-09-04T00:11:23.260Z,11.00
2017-09-04T00:13:49.600Z,11.10
2017-09-04T00:16:16.092Z,11.10
2017-09-04T00:18:42.617Z,11.10
2017-09-04T00:21:08.956Z,11.00
2017-09-04T00:23:35.260Z,11.00
2017-09-04T00:26:01.544Z,10.90
2017-09-04T00:28:27.905Z,10.90
2017-09-04T00:30:54.263Z,10.90
2017-09-04T00:33:20.575Z,10.90
2017-09-04T00:35:46.859Z,10.90
2017-09-04T00:38:13.130Z,10.90
2017-09-04T00:40:39.484Z,10.80
2017-09-04T00:43:05.935Z,10.80
2017-09-04T00:45:32.375Z,10.80
2017-09-04T00:47:58.687Z,10.70
2017-09-04T00:50:24.955Z,10.70
2017-09-04T00:52:51.261Z,10.70
2017-09-04T00:55:17.540Z,10.70
2017-09-04T00:57:43.836Z,10.70
2017-09-04T01:00:10.131Z,10.70
2017-09-04T01:02:36.461Z,10.60
2017-09-04T01:05:02.969Z,10.60
2017-09-04T01:07:29.344Z,10.60
2017-09-04T01:09:55.683Z,10.50
2017-09-04T01:12:21.992Z,10.50
2017-09-04T01:14:48.335Z,10.50
2017-09-04T01:17:14.626Z,10.50
2017-09-04T01:19:40.935Z,10.50
2017-09-04T01:22:07.248Z,10.40
2017-09-04T01:24:33.531Z,10.40
2017-09-04T01:26:59.839Z,10.40
2017-09-04T01:29:26.260Z,10.40
2017-09-04T01:31:52.556Z,10.40
2017-09-04T01:34:18.890Z,10.30
2017-09-04T01:36:45.247Z,10.30
2017-09-04T01:39:11.548Z,10.40
2017-09-04T01:41:37.935Z,10.40
2017-09-04T01:44:04.318Z,10.40
2017-09-04T01:46:31.330Z,10.40
2017-09-04T01:48:57.817Z,10.40
2017-09-04T01:51:24.119Z,10.50
2017-09-04T01:53:50.505Z,10.50
2017-09-04T01:56:16.828Z,10.40
2017-09-04T01:58:43.139Z,10.50
2017-09-04T02:01:09.407Z,10.40
2017-09-04T02:03:35.713Z,10.40
2017-09-04T02:06:01.997Z,10.40
2017-09-04T02:08:28.364Z,10.30
2017-09-04T02:10:54.705Z,10.30
2017-09-04T02:13:21.017Z,10.30
2017-09-04T02:15:47.286Z,10.40
2017-09-04T02:18:13.607Z,10.30
2017-09-04T02:20:39.883Z,10.30
2017-09-04T02:23:06.260Z,10.40
2017-09-04T02:25:32.560Z,10.30
2017-09-04T02:27:58.827Z,10.30
2017-09-04T02:30:25.112Z,10.30
2017-09-04T02:32:51.437Z,10.20
2017-09-04T02:35:17.739Z,10.20
2017-09-04T02:37:44.041Z,10.20
2017-09-04T02:40:10.353Z,10.20
2017-09-04T02:42:36.699Z,10.10
2017-09-04T02:45:03.006Z,10.10
2017-09-04T02:47:29.364Z,10.10
2017-09-04T02:49:55.639Z,10.10
2017-09-04T02:52:21.913Z,10.10
2017-09-04T02:54:48.296Z,10.00
2017-09-04T02:57:14.612Z,10.10
2017-09-04T02:59:40.907Z,10.10
2017-09-04T03:02:07.168Z,10.10
2017-09-04T03:04:33.617Z,10.10
2017-09-04T03:06:59.943Z,10.10
2017-09-04T03:09:26.296Z,10.10
2017-09-04T03:11:52.640Z,10.00
2017-09-04T03:14:18.987Z,10.00
2017-09-04T03:16:45.345Z,10.00
2017-09-04T03:19:11.680Z,10.00
2017-09-04T03:21:38.006Z,10.00
2017-09-04T03:24:04.291Z,10.00
2017-09-04T03:26:30.574Z,10.00
2017-09-04T03:28:56.895Z,10.00
2017-09-04T03:31:23.195Z,9.90
2017-09-04T03:33:49.487Z,10.00
2017-09-04T03:36:15.812Z,10.00
2017-09-04T03:38:42.165Z,10.10
2017-09-04T03:41:08.468Z,10.20
2017-09-04T03:43:34.760Z,10.30
2017-09-04T03:46:01.051Z,10.30
2017-09-04T03:48:27.303Z,10.30
2017-09-04T03:50:53.584Z,10.30
2017-09-04T03:53:19.856Z,10.20
2017-09-04T03:55:46.232Z,10.20
2017-09-04T03:58:12.560Z,10.20
2017-09-04T04:00:38.868Z,10.20
2017-09-04T04:03:05.204Z,10.20
2017-09-04T04:05:31.495Z,10.20
2017-09-04T04:07:57.843Z,10.20
2017-09-04T04:10:24.240Z,10.20
2017-09-04T04:12:50.583Z,10.20
2017-09-04T04:15:16.928Z,10.30
2017-09-04T04:17:43.215Z,10.30
2017-09-04T04:20:09.531Z,10.40
2017-09-04T04:22:35.819Z,10.40
2017-09-04T04:25:02.123Z,10.40
2017-09-04T04:27:28.469Z,10.40
2017-09-04T04:29:54.753Z,10.30
2017-09-04T04:32:21.019Z,10.30
2017-09-04T04:34:47.339Z,10.30
2017-09-04T04:37:13.632Z,10.30
2017-09-04T04:39:39.964Z,10.30
2017-09-04T04:42:06.248Z,10.30
2017-09-04T04:44:32.536Z,10.30
2017-09-04T04:46:58.835Z,10.40
2017-09-04T04:49:25.183Z,10.40
2017-09-04T04:51:51.533Z,10.50
2017-09-04T04:54:17.828Z,10.60
2017-09-04T04:56:44.114Z,10.70
2017-09-04T04:59:10.425Z,10.80
2017-09-04T05:01:36.740Z,10.80
2017-09-04T05:04:03.076Z,10.90
2017-09-04T05:06:29.360Z,10.90
2017-09-04T05:08:55.681Z,11.10
2017-09-04T05:11:21.989Z,11.10
2017-09-04T05:13:48.324Z,11.20
2017-09-04T05:16:14.611Z,11.30
2017-09-04T05:18:40.892Z,11.50
2017-09-04T05:21:07.202Z,11.60
2017-09-04T05:23:33.511Z,11.80
2017-09-04T05:26:00.097Z,11.90
2017-09-04T05:28:26.379Z,12.10
2017-09-04T05:30:53.056Z,12.20
2017-09-04T05:33:19.344Z,12.50
2017-09-04T05:35:45.639Z,13.30
2017-09-04T05:38:11.926Z,14.60
2017-09-04T05:40:38.197Z,15.90
2017-09-04T05:43:04.547Z,17.20
2017-09-04T05:45:30.888Z,18.60
2017-09-04T05:47:57.171Z,19.70
2017-09-04T05:50:23.459Z,20.20
2017-09-04T05:52:49.828Z,20.40
2017-09-04T05:55:16.125Z,20.50
2017-09-04T05:57:42.466Z,20.90
2017-09-04T06:00:08.813Z,21.70
2017-09-04T06:02:35.088Z,22.80
2017-09-04T06:05:01.384Z,24.00
2017-09-04T06:07:27.700Z,24.50
2017-09-04T06:09:54.084Z,24.40
2017-09-04T06:12:20.420Z,24.30
2017-09-04T06:14:46.763Z,24.20
2017-09-04T06:17:13.056Z,24.80
2017-09-04T06:19:39.352Z,25.70
2017-09-04T06:22:05.676Z,26.30
2017-09-04T06:24:32.067Z,26.60
2017-09-04T06:26:58.344Z,26.60
2017-09-04T06:29:24.753Z,27.40
2017-09-04T06:31:51.021Z,28.10
2017-09-04T06:34:17.281Z,28.70
2017-09-04T06:36:43.607Z,28.90
2017-09-04T06:39:09.961Z,28.50
2017-09-04T06:41:36.285Z,28.00
2017-09-04T06:44:02.687Z,27.80
2017-09-04T06:46:28.990Z,27.80
2017-09-04T06:48:55.300Z,27.80
2017-09-04T06:51:21.567Z,28.50
2017-09-04T06:53:47.895Z,29.40
2017-09-04T06:56:14.172Z,30.10
2017-09-04T06:58:40.518Z,30.90
2017-09-04T07:01:06.851Z,31.80
2017-09-04T07:03:33.219Z,33.10
2017-09-04T07:05:59.527Z,34.50
2017-09-04T07:08:25.939Z,34.90
2017-09-04T07:10:52.293Z,34.90
2017-09-04T07:13:18.583Z,34.90
2017-09-04T07:15:44.905Z,35.30
2017-09-04T07:18:11.200Z,35.50
2017-09-04T07:20:37.492Z,36.10
2017-09-04T07:23:03.785Z,37.00
2017-09-04T07:25:30.059Z,37.80
2017-09-04T07:27:56.379Z,37.50
2017-09-04T07:30:22.711Z,36.70
2017-09-04T07:32:48.987Z,35.60
2017-09-04T07:35:15.301Z,34.50
2017-09-04T07:37:41.609Z,34.10
2017-09-04T07:40:07.972Z,34.20
2017-09-04T07:42:34.325Z,34.30
2017-09-04T07:45:00.608Z,34.40
2017-09-04T07:47:26.952Z,34.60
2017-09-04T07:49:53.268Z,34.90
2017-09-04T07:52:19.600Z,35.70
2017-09-04T07:54:45.947Z,36.20
2017-09-04T07:57:12.321Z,37.00
2017-09-04T07:59:38.607Z,37.80
2017-09-04T08:02:04.928Z,38.10
2017-09-04T08:04:31.259Z,37.60
2017-09-04T08:06:57.531Z,37.00
2017-09-04T08:09:23.880Z,36.10
2017-09-04T08:11:50.310Z,36.70
2017-09-04T08:14:16.687Z,37.90
2017-09-04T08:16:43.128Z,39.40
2017-09-04T08:19:09.516Z,40.90
2017-09-04T08:21:35.848Z,42.00
2017-09-04T08:24:02.127Z,42.80
2017-09-04T08:26:28.440Z,42.70
2017-09-04T08:28:54.720Z,41.50
2017-09-04T08:31:21.083Z,41.40
2017-09-04T08:33:47.476Z,41.40
2017-09-04T08:36:13.840Z,41.70
2017-09-04T08:38:40.202Z,42.00
2017-09-04T08:41:06.698Z,42.30
2017-09-04T08:43:32.992Z,43.10
2017-09-04T08:45:59.289Z,43.80
2017-09-04T08:48:25.587Z,44.30
2017-09-04T08:50:52.691Z,42.40
2017-09-04T08:53:18.980Z,42.30
2017-09-04T08:55:45.261Z,42.20
2017-09-04T08:58:11.571Z,42.20
2017-09-04T09:00:37.975Z,42.50
2017-09-04T09:03:04.321Z,42.80
2017-09-04T09:05:30.788Z,43.10
2017-09-04T09:07:57.113Z,43.40
2017-09-04T09:10:23.376Z,43.50
2017-09-04T09:12:49.687Z,43.60
2017-09-04T09:15:15.987Z,43.70
2017-09-04T09:17:42.292Z,43.90
2017-09-04T09:20:08.604Z,43.60
2017-09-04T09:22:34.952Z,43.30
2017-09-04T09:25:01.314Z,43.10
2017-09-04T09:27:27.630Z,43.00
2017-09-04T09:29:54.002Z,42.80
2017-09-04T09:32:20.315Z,42.00
2017-09-04T09:34:46.648Z,41.30
2017-09-04T09:37:12.957Z,39.70
2017-09-04T09:39:39.262Z,38.60
2017-09-04T09:42:05.636Z,37.70
2017-09-04T09:44:32.033Z,37.20
2017-09-04T09:46:58.361Z,36.30
2017-09-04T09:49:24.676Z,34.50
2017-09-04T09:51:51.016Z,32.60
2017-09-04T09:54:17.290Z,31.20
2017-09-04T09:56:43.557Z,29.50
2017-09-04T09:59:09.915Z,28.20
2017-09-04T10:01:36.212Z,27.20
2017-09-04T10:04:02.577Z,26.60
2017-09-04T10:06:28.901Z,25.90
2017-09-04T10:08:55.219Z,25.20
2017-09-04T10:11:21.592Z,24.70
2017-09-04T10:13:47.905Z,24.30
2017-09-04T10:16:14.252Z,24.10
2017-09-04T10:18:40.584Z,23.70
2017-09-04T10:21:06.951Z,23.30
2017-09-04T10:23:33.289Z,23.20
2017-09-04T10:25:59.630Z,23.00
2017-09-04T10:28:26.815Z,23.00
2017-09-04T10:30:53.083Z,23.00
2017-09-04T10:33:19.432Z,23.10
2017-09-04T10:35:45.704Z,22.90
2017-09-04T10:38:12.075Z,22.80
2017-09-04T10:40:38.603Z,22.70
2017-09-04T10:43:04.907Z,22.70
2017-09-04T10:45:31.227Z,22.60
2017-09-04T10:47:57.549Z,22.60
2017-09-04T10:50:23.875Z,22.60
2017-09-04T10:52:50.844Z,22.70
2017-09-04T10:55:17.147Z,22.80
2017-09-04T10:57:43.443Z,22.70
2017-09-04T11:00:09.776Z,22.60
2017-09-04T11:02:36.085Z,22.60
2017-09-04T11:05:02.388Z,22.60
2017-09-04T11:07:28.880Z,22.70
2017-09-04T11:09:55.221Z,22.80
2017-09-04T11:12:21.572Z,22.70
2017-09-04T11:14:47.913Z,22.60
2017-09-04T11:17:14.191Z,22.50
2017-09-04T11:19:40.512Z,22.50
2017-09-04T11:22:06.803Z,22.70
2017-09-04T11:24:33.160Z,22.60
2017-09-04T11:26:59.485Z,22.50
2017-09-04T11:29:25.765Z,22.60
2017-09-04T11:31:52.612Z,22.50
2017-09-04T11:34:18.919Z,22.40
2017-09-04T11:36:45.244Z,22.40
2017-09-04T11:39:11.592Z,22.50
2017-09-04T11:41:37.916Z,22.50
2017-09-04T11:44:04.383Z,22.50
2017-09-04T11:46:30.709Z,22.40
2017-09-04T11:48:57.032Z,22.30
2017-09-04T11:51:23.356Z,22.40
2017-09-04T11:53:49.706Z,22.40
2017-09-04T11:56:16.029Z,22.40
2017-09-04T11:58:42.453Z,22.40
2017-09-04T12:01:08.833Z,22.50
2017-09-04T12:03:35.168Z,22.40
2017-09-04T12:06:01.472Z,22.50
2017-09-04T12:08:28.021Z,22.50
2017-09-04T12:10:54.316Z,22.50
2017-09-04T12:13:20.612Z,22.50
2017-09-04T12:15:46.944Z,22.40
2017-09-04T12:18:13.301Z,22.30
2017-09-04T12:20:39.595Z,22.40
2017-09-04T12:23:05.888Z,22.40
2017-09-04T12:25:32.233Z,22.40
2017-09-04T12:27:58.508Z,22.50
2017-09-04T12:30:24.812Z,22.50
2017-09-04T12:32:51.124Z,22.50
2017-09-04T12:35:17.514Z,22.40
2017-09-04T12:37:43.824Z,22.40
2017-09-04T12:40:10.283Z,22.50
2017-09-04T12:42:36.589Z,22.40
2017-09-04T12:45:02.902Z,22.40
2017-09-04T12:47:29.215Z,22.40
2017-09-04T12:49:55.517Z,22.30
2017-09-04T12:52:21.855Z,22.30
2017-09-04T12:54:48.166Z,22.30
2017-09-04T12:57:14.597Z,22.50
2017-09-04T12:59:40.928Z,22.60
2017-09-04T13:02:07.207Z,22.70
2017-09-04T13:04:33.503Z,22.70
2017-09-04T13:06:59.764Z,22.80
2017-09-04T13:09:26.185Z,23.00
2017-09-04T13:11:52.500Z,23.00
2017-09-04T13:14:24.924Z,23.10
2017-09-04T13:20:13.007Z,23.10
2017-09-04T13:22:45.343Z,23.10
2017-09-04T13:25:17.765Z,23.10
2017-09-04T13:30:56.723Z,23.00
2017-09-04T13:33:29.273Z,23.00
2017-09-04T13:39:01.632Z,22.90
2017-09-04T13:41:33.884Z,23.00
2017-09-04T13:44:06.369Z,22.90
2017-09-04T13:46:38.628Z,23.10
2017-09-04T13:49:11.189Z,23.10
2017-09-04T13:51:43.711Z,23.10
2017-09-04T13:54:16.181Z,23.30
2017-09-04T13:56:43.432Z,23.30
2017-09-04T13:59:15.924Z,23.40
2017-09-04T14:01:48.188Z,23.50
2017-09-04T14:07:26.188Z,23.90
2017-09-04T14:09:58.588Z,24.10
2017-09-04T14:12:29.957Z,24.10
2017-09-04T14:15:05.428Z,24.00
2017-09-04T14:17:37.854Z,23.80
2017-09-04T14:20:04.187Z,23.60
2017-09-04T14:22:30.614Z,23.60
2017-09-04T14:24:56.885Z,23.70
2017-09-04T14:27:23.210Z,23.80
2017-09-04T14:29:49.538Z,23.70
2017-09-04T14:32:15.858Z,23.80
2017-09-04T14:34:42.184Z,23.80
2017-09-04T14:37:08.524Z,23.80
2017-09-04T14:39:34.832Z,23.90
2017-09-04T14:42:01.184Z,23.90
2017-09-04T14:44:29.495Z,23.80
2017-09-04T14:46:55.871Z,23.70
2017-09-04T14:49:22.152Z,23.60
2017-09-04T14:51:48.665Z,23.50
2017-09-04T14:54:14.992Z,23.40
2017-09-04T14:56:41.344Z,23.30
2017-09-04T14:59:07.647Z,23.30
2017-09-04T15:01:33.971Z,23.20
2017-09-04T15:04:00.316Z,23.10
2017-09-04T15:06:26.655Z,23.00
2017-09-04T15:08:52.937Z,23.10
2017-09-04T15:11:19.276Z,23.10
2017-09-04T15:13:45.731Z,23.20
2017-09-04T15:16:12.047Z,23.30
2017-09-04T15:18:38.399Z,23.30
2017-09-04T15:21:04.746Z,23.40
2017-09-04T15:23:31.124Z,23.60
2017-09-04T15:25:57.440Z,23.80
2017-09-04T15:28:23.745Z,23.80
2017-09-04T15:30:50.119Z,23.90
2017-09-04T15:33:16.436Z,23.90
2017-09-04T15:35:42.773Z,24.00
2017-09-04T15:38:09.109Z,24.20
2017-09-04T15:40:35.380Z,24.00
2017-09-04T15:43:01.716Z,24.10
2017-09-04T15:45:27.991Z,24.10
2017-09-04T15:47:54.312Z,24.00
2017-09-04T15:50:20.679Z,24.00
2017-09-04T15:52:46.967Z,23.80
2017-09-04T15:55:13.284Z,23.70
2017-09-04T15:57:39.633Z,23.50
2017-09-04T16:00:05.980Z,23.50
2017-09-04T16:02:32.303Z,23.40
2017-09-04T16:04:58.611Z,23.10
2017-09-04T16:07:27.744Z,22.80
2017-09-04T16:09:54.033Z,22.50
2017-09-04T16:15:30.601Z,22.10
2017-09-04T16:17:56.956Z,21.90
2017-09-04T16:20:26.152Z,21.80
2017-09-04T16:22:53.519Z,21.50
2017-09-04T16:25:20.943Z,21.20
2017-09-04T16:27:50.104Z,21.10
2017-09-04T16:30:22.536Z,20.90
2017-09-04T16:32:49.873Z,20.70
2017-09-04T16:48:58.376Z,20.20
2017-09-04T16:51:26.816Z,20.10
2017-09-04T16:53:53.221Z,20.00
2017-09-04T16:59:19.299Z,20.10
2017-09-04T17:01:45.646Z,20.10
2017-09-04T17:04:12.059Z,20.10
2017-09-04T17:06:38.550Z,20.20
2017-09-04T17:09:07.168Z,20.30
2017-09-04T17:11:33.907Z,20.40
2017-09-04T17:14:00.369Z,20.40
2017-09-04T17:16:27.042Z,20.40
2017-09-04T17:18:54.188Z,20.30
2017-09-04T17:21:24.377Z,20.40
2017-09-04T17:23:50.748Z,20.30
2017-09-04T17:26:17.081Z,20.20
2017-09-04T17:28:43.408Z,20.10
2017-09-04T17:31:09.749Z,20.00
2017-09-04T17:33:36.055Z,19.90
2017-09-04T17:36:02.396Z,19.90
2017-09-04T17:38:28.742Z,19.80
2017-09-04T17:40:55.075Z,19.80
2017-09-04T17:43:21.392Z,19.70
2017-09-04T17:45:47.715Z,19.70
2017-09-04T17:48:14.855Z,19.60
2017-09-04T17:50:41.175Z,19.60
2017-09-04T17:53:07.509Z,19.50
2017-09-04T17:55:33.792Z,19.50
2017-09-04T17:58:00.165Z,19.40
2017-09-04T18:00:26.645Z,19.40
2017-09-04T18:02:52.984Z,19.30
2017-09-04T18:05:19.308Z,19.20
2017-09-04T18:07:45.663Z,19.10
2017-09-04T18:10:12.005Z,19.00
2017-09-04T18:12:38.296Z,18.90
2017-09-04T18:15:04.663Z,18.90
2017-09-04T18:17:31.047Z,18.80
2017-09-04T18:19:57.411Z,18.70
2017-09-04T18:22:23.726Z,18.70
2017-09-04T18:24:50.074Z,18.70
2017-09-04T18:27:16.377Z,18.70
2017-09-04T18:29:42.724Z,18.60
2017-09-04T18:32:09.035Z,18.50
2017-09-04T18:34:35.382Z,18.40
2017-09-04T18:37:01.903Z,18.40
2017-09-04T18:39:28.214Z,18.30
2017-09-04T18:41:54.534Z,18.20
2017-09-04T18:44:20.864Z,18.30
2017-09-04T18:46:47.963Z,18.30
2017-09-04T18:49:14.340Z,18.30
2017-09-04T18:51:40.692Z,18.30
2017-09-04T18:54:07.006Z,18.20
2017-09-04T18:56:33.349Z,18.10
2017-09-04T18:58:59.708Z,18.00
2017-09-04T19:01:26.026Z,18.00
2017-09-04T19:03:52.345Z,17.90
2017-09-04T19:06:18.690Z,17.80
2017-09-04T19:08:44.988Z,17.80
2017-09-04T19:11:11.324Z,17.70
2017-09-04T19:13:37.711Z,17.70
2017-09-04T19:16:04.076Z,17.70
2017-09-04T19:18:30.388Z,17.60
2017-09-04T19:20:56.732Z,17.60
2017-09-04T19:23:23.020Z,17.60
2017-09-04T19:25:49.371Z,17.60
2017-09-04T19:28:15.757Z,17.50
2017-09-04T19:30:42.270Z,17.50
2017-09-04T19:33:09.317Z,17.50
2017-09-04T19:35:35.700Z,17.50
2017-09-04T19:38:02.091Z,17.60
2017-09-04T19:40:28.427Z,17.60
2017-09-04T19:42:54.851Z,17.60
2017-09-04T19:45:21.204Z,17.60
2017-09-04T19:47:47.504Z,17.60
2017-09-04T19:50:13.851Z,17.70
2017-09-04T19:52:40.187Z,17.70
2017-09-04T19:55:06.511Z,17.80
2017-09-04T19:57:32.842Z,17.80
2017-09-04T19:59:59.237Z,17.80
2017-09-04T20:02:25.552Z,17.80
2017-09-04T20:04:52.678Z,17.80
2017-09-04T20:07:19.052Z,17.80
2017-09-04T20:09:45.382Z,17.80
2017-09-04T20:12:11.728Z,17.80
2017-09-04T20:14:38.064Z,17.80
2017-09-04T20:17:04.398Z,17.80
2017-09-04T20:19:31.447Z,17.90
2017-09-04T20:21:57.769Z,17.90
2017-09-04T20:24:24.056Z,18.00
2017-09-04T20:26:50.503Z,18.10
2017-09-04T20:29:16.845Z,18.10
2017-09-04T20:31:43.188Z,18.10
2017-09-04T20:34:09.619Z,18.20
2017-09-04T20:36:36.008Z,18.20
2017-09-04T20:39:02.404Z,18.10
2017-09-04T20:41:28.849Z,18.10
2017-09-04T20:43:55.185Z,18.10
2017-09-04T20:46:21.522Z,18.10
2017-09-04T20:48:47.820Z,18.10
2017-09-04T20:51:14.180Z,18.10
2017-09-04T20:53:40.521Z,18.00
2017-09-04T20:56:06.861Z,18.00
2017-09-04T20:58:33.312Z,18.00
2017-09-04T21:00:59.605Z,18.00
2017-09-04T21:03:25.931Z,18.00
2017-09-04T21:05:52.338Z,18.00
2017-09-04T21:08:18.712Z,18.10
2017-09-04T21:10:45.063Z,18.10
2017-09-04T21:13:11.343Z,18.10
2017-09-04T21:15:37.745Z,18.00
2017-09-04T21:18:04.114Z,18.00
2017-09-04T21:20:30.537Z,18.00
2017-09-04T21:22:56.992Z,18.00
2017-09-04T21:25:23.346Z,17.90
2017-09-04T21:27:49.666Z,18.00
2017-09-04T21:30:15.972Z,17.90
2017-09-04T21:32:42.481Z,17.90
2017-09-04T21:35:09.528Z,17.90
2017-09-04T21:37:37.204Z,17.90
2017-09-04T21:40:03.541Z,17.90
2017-09-04T21:42:29.860Z,17.90
2017-09-04T21:44:56.319Z,17.90
2017-09-04T21:47:22.687Z,17.90
2017-09-04T21:49:49.189Z,17.90
2017-09-04T21:52:15.468Z,17.90
2017-09-04T21:54:41.772Z,17.80
2017-09-04T21:57:08.088Z,17.80
2017-09-04T21:59:34.503Z,17.80
2017-09-04T22:02:00.807Z,17.90
2017-09-04T22:04:27.093Z,17.80
2017-09-04T22:06:53.390Z,17.80
2017-09-04T22:09:19.657Z,17.90
2017-09-04T22:11:46.049Z,17.90
2017-09-04T22:14:12.336Z,17.90
2017-09-04T22:16:38.668Z,17.90
2017-09-04T22:19:04.982Z,17.90
2017-09-04T22:21:31.285Z,17.90
2017-09-04T22:23:57.604Z,17.90
2017-09-04T22:26:23.884Z,17.90
2017-09-04T22:28:50.227Z,17.80
2017-09-04T22:31:16.561Z,17.80
2017-09-04T22:33:42.875Z,17.80
2017-09-04T22:36:09.213Z,17.80
2017-09-04T22:38:35.596Z,17.80
2017-09-04T22:41:02.109Z,17.70
2017-09-04T22:43:28.420Z,17.80
2017-09-04T22:45:54.736Z,17.80
2017-09-04T22:48:21.053Z,17.90
2017-09-04T22:50:47.345Z,17.90
2017-09-04T22:53:13.669Z,17.80
2017-09-04T22:55:40.021Z,17.80
2017-09-04T22:58:06.337Z,17.80
2017-09-04T23:00:32.796Z,17.80
2017-09-04T23:02:59.135Z,17.90
2017-09-04T23:05:26.182Z,17.90
2017-09-04T23:07:52.576Z,17.90
2017-09-04T23:10:19.132Z,17.90
2017-09-04T23:12:45.404Z,17.90
2017-09-04T23:15:11.664Z,17.80
2017-09-04T23:17:38.017Z,17.80
2017-09-04T23:20:04.336Z,17.80
2017-09-04T23:22:30.654Z,17.80
2017-09-04T23:24:57.007Z,17.80
2017-09-04T23:27:23.325Z,17.80
2017-09-04T23:29:49.624Z,17.80
2017-09-04T23:32:15.954Z,17.80
2017-09-04T23:34:42.399Z,17.80
2017-09-04T23:37:08.848Z,17.90
2017-09-04T23:39:35.148Z,17.80
2017-09-04T23:42:01.429Z,17.80
2017-09-04T23:44:27.765Z,17.80
2017-09-04T23:46:54.075Z,17.70
2017-09-04T23:49:20.372Z,17.70
2017-09-04T23:51:47.377Z,17.80
2017-09-04T23:54:13.676Z,17.90
2017-09-04T23:56:39.996Z,17.90
2017-09-04T23:59:06.341Z,17.90
